Terminal Aerodrome Forecast
Issued by NWS

Home | Current Version | Previous Version | Text Only | Print | Product List | Glossary On
Versions: 1 2 3 4 5 6 7 8 9 10 11 12 13
000
FTUS45 KABQ 261141
TAFROW
TAF
KROW 261141Z 2612/2712 32011KT P6SM BKN110
     FM261700 28015G25KT P6SM SKC
     FM262000 28020G30KT P6SM SKC
     FM270200 30007KT P6SM FEW250=

USA.gov is the U.S. government's official web portal to all federal, state and local government web resources and services.